Time;durP1;ratioP1;P1;durP2;ratioP2;P2;SDS_P1;SDS_P2;PMS_P1;PMS_P2;Temp;Humidity;BMP_temperature;BMP_pressure;BME280_temperature;BME280_humidity;BME280_pressure;Samples;Min_cycle;Max_cycle;Signal;HPM_P1;HPM_P2
2023/02/08 00:01:35;;;;;;;35.42;14.13;;;5.90;81.30;;;;;;7370400;19;20018;-81
2023/02/08 00:04:04;;;;;;;31.13;13.75;;;5.80;81.20;;;;;;7373233;19;20090;-80
2023/02/08 00:06:33;;;;;;;38.97;13.57;;;5.80;81.00;;;;;;7395486;19;20428;-81
2023/02/08 00:09:02;;;;;;;29.23;13.20;;;5.80;80.90;;;;;;7372535;19;20010;-81
2023/02/08 00:11:34;;;;;;;36.47;14.63;;;5.80;81.00;;;;;;7372021;19;20039;-81
2023/02/08 00:14:02;;;;;;;34.78;14.05;;;5.70;81.00;;;;;;7374877;19;20505;-80
2023/02/08 00:16:31;;;;;;;42.70;15.43;;;5.70;81.00;;;;;;7375313;19;20066;-81
2023/02/08 00:19:04;;;;;;;32.65;13.45;;;5.70;81.20;;;;;;7373925;19;20121;-80
2023/02/08 00:21:32;;;;;;;32.75;13.40;;;5.60;81.30;;;;;;7391409;19;20081;-81
2023/02/08 00:24:01;;;;;;;36.47;13.10;;;5.60;81.30;;;;;;7370780;19;20101;-81
2023/02/08 00:26:33;;;;;;;35.97;12.77;;;5.60;82.20;;;;;;7367621;19;20018;-80
2023/02/08 00:29:01;;;;;;;38.30;13.85;;;5.50;81.30;;;;;;7371251;19;20007;-81
2023/02/08 00:31:30;;;;;;;32.60;13.25;;;5.60;81.30;;;;;;7369070;19;20014;-80
2023/02/08 00:33:59;;;;;;;32.50;14.90;;;5.60;81.20;;;;;;7371333;19;20075;-81
2023/02/08 00:36:29;;;;;;;33.45;13.52;;;5.60;81.30;;;;;;7394010;19;20098;-81
2023/02/08 00:38:57;;;;;;;37.15;14.52;;;5.60;81.30;;;;;;7370775;19;20018;-80
2023/02/08 00:41:26;;;;;;;35.38;13.45;;;5.50;81.60;;;;;;7372329;19;20014;-79
2023/02/08 00:43:58;;;;;;;30.48;14.70;;;5.50;81.60;;;;;;7373053;19;20109;-79
2023/02/08 00:46:26;;;;;;;34.42;13.73;;;5.50;81.80;;;;;;7373079;19;20560;-80
2023/02/08 00:48:56;;;;;;;34.22;13.95;;;5.50;81.90;;;;;;7415511;19;20028;-79
2023/02/08 00:51:24;;;;;;;35.40;13.90;;;5.50;81.90;;;;;;7381583;19;20055;-80
2023/02/08 00:53:53;;;;;;;34.40;13.32;;;5.50;81.80;;;;;;7376487;19;20022;-80
2023/02/08 00:56:22;;;;;;;29.35;12.88;;;5.50;81.90;;;;;;7372145;19;20018;-80
2023/02/08 00:58:50;;;;;;;27.77;13.05;;;5.50;81.90;;;;;;7375985;19;20401;-80
2023/02/08 01:01:22;;;;;;;27.30;12.57;;;5.40;81.80;;;;;;7373251;19;20023;-78
2023/02/08 01:03:50;;;;;;;;;;;5.40;81.70;;;;;;7396452;19;20159;-80
2023/02/08 01:06:20;;;;;;;31.15;12.00;;;5.40;82.10;;;;;;7376324;19;19929;-79
2023/02/08 01:08:48;;;;;;;27.00;11.98;;;5.30;81.90;;;;;;7372831;19;20134;-80
2023/02/08 01:11:21;;;;;;;29.98;13.05;;;5.30;82.00;;;;;;7371833;19;20035;-80
2023/02/08 01:13:50;;;;;;;32.53;12.30;;;5.30;81.90;;;;;;7372871;19;20010;-80
2023/02/08 01:16:24;;;;;;;24.88;11.13;;;5.30;82.10;;;;;;7371395;19;20044;-80
2023/02/08 01:18:55;;;;;;;38.55;14.13;;;5.30;82.00;;;;;;7392844;19;20794;-80
2023/02/08 01:21:25;;;;;;;31.38;12.68;;;5.30;81.90;;;;;;7371963;19;20019;-79
2023/02/08 01:23:55;;;;;;;33.47;12.98;;;5.30;82.10;;;;;;7369968;19;20022;-79
2023/02/08 01:26:27;;;;;;;27.67;13.00;;;5.30;82.00;;;;;;7370930;19;20052;-79
2023/02/08 01:28:58;;;;;;;35.97;13.35;;;5.30;82.10;;;;;;7370171;19;20019;-80
2023/02/08 01:31:31;;;;;;;32.72;12.77;;;5.20;82.00;;;;;;7372715;19;20446;-80
2023/02/08 01:34:00;;;;;;;33.40;13.38;;;5.20;82.20;;;;;;7368287;19;20098;-80
2023/02/08 01:36:30;;;;;;;28.38;13.02;;;5.20;83.10;;;;;;7389696;19;20017;-79
2023/02/08 01:38:59;;;;;;;27.08;12.20;;;5.10;82.50;;;;;;7370743;19;20478;-79
2023/02/08 01:41:32;;;;;;;34.63;13.18;;;5.10;82.70;;;;;;7369402;19;20015;-79
2023/02/08 01:44:04;;;;;;;33.78;13.85;;;5.10;82.60;;;;;;7370024;19;20436;-79
2023/02/08 01:46:37;;;;;;;32.53;13.68;;;5.10;82.70;;;;;;7368858;19;20044;-80
2023/02/08 01:49:11;;;;;;;29.33;11.85;;;5.00;82.70;;;;;;7367765;19;20018;-79
2023/02/08 01:51:43;;;;;;;29.60;12.30;;;5.00;82.80;;;;;;7389846;19;20078;-80
2023/02/08 01:54:14;;;;;;;36.13;13.35;;;5.00;82.70;;;;;;7369073;19;20015;-79
2023/02/08 01:56:46;;;;;;;31.85;11.90;;;5.00;82.80;;;;;;7366517;19;20113;-80
2023/02/08 01:59:19;;;;;;;29.52;12.10;;;5.10;82.70;;;;;;7370131;19;20041;-80
2023/02/08 02:01:52;;;;;;;29.08;11.35;;;5.10;82.80;;;;;;7372983;19;20053;-80
2023/02/08 02:04:22;;;;;;;26.13;11.55;;;5.10;82.70;;;;;;7375766;19;20967;-80
2023/02/08 02:06:52;;;;;;;24.35;11.27;;;5.10;82.20;;;;;;7393702;19;20044;-80
2023/02/08 02:09:27;;;;;;;29.00;11.50;;;5.10;82.00;;;;;;7377910;19;20082;-80
2023/02/08 02:11:58;;;;;;;29.60;12.43;;;5.20;82.00;;;;;;7377668;19;20102;-80
2023/02/08 02:14:27;;;;;;;29.73;12.18;;;5.20;82.00;;;;;;7379334;19;20022;-80
2023/02/08 02:17:01;;;;;;;26.40;11.73;;;5.20;81.80;;;;;;7378836;19;20090;-80
2023/02/08 02:19:41;;;;;;;31.63;12.60;;;5.20;81.70;;;;;;7379530;19;20010;-80
2023/02/08 02:22:29;;;;;;;29.42;12.50;;;5.20;81.80;;;;;;7376396;19;20020;-80
2023/02/08 02:25:19;;;;;;;28.65;11.27;;;5.10;81.70;;;;;;7379769;19;20035;-79
2023/02/08 02:28:12;;;;;;;25.63;12.13;;;5.00;81.80;;;;;;7399900;19;20520;-80
2023/02/08 02:31:11;;;;;;;30.90;12.45;;;5.00;82.10;;;;;;7373859;19;20242;-80
2023/02/08 02:33:55;;;;;;;25.67;11.48;;;5.00;82.40;;;;;;7377094;19;20038;-80
2023/02/08 02:36:34;;;;;;;28.83;11.48;;;5.10;82.20;;;;;;7376112;19;20048;-80
2023/02/08 02:39:15;;;;;;;31.92;12.30;;;5.00;82.20;;;;;;7372878;19;20022;-81
2023/02/08 02:44:53;;;;;;;31.77;11.20;;;5.00;82.10;;;;;;7373005;19;20037;-80
2023/02/08 02:47:31;;;;;;;35.67;12.27;;;5.00;81.90;;;;;;7374099;19;20101;-80
2023/02/08 02:50:08;;;;;;;23.67;11.85;;;5.00;81.90;;;;;;7372489;19;20035;-79
2023/02/08 02:52:42;;;;;;;28.17;11.38;;;5.00;82.10;;;;;;7370766;19;20018;-80
2023/02/08 02:55:14;;;;;;;31.52;12.63;;;5.00;82.40;;;;;;7367489;19;20093;-80
2023/02/08 02:57:45;;;;;;;29.88;12.63;;;5.00;82.20;;;;;;7391370;19;20094;-80
2023/02/08 03:00:21;;;;;;;28.55;11.70;;;5.00;82.20;;;;;;7370914;19;20717;-80
2023/02/08 03:02:49;;;;;;;29.48;12.82;;;5.00;82.10;;;;;;7368668;19;20011;-80
2023/02/08 03:05:21;;;;;;;35.78;12.30;;;5.00;81.80;;;;;;7370574;19;20033;-79
2023/02/08 03:07:59;;;;;;;;;;;5.00;81.80;;;;;;7371018;19;20129;-79
2023/02/08 03:10:55;;;;;;;31.42;12.88;;;5.00;82.20;;;;;;7371338;19;19956;-80
2023/02/08 03:13:33;;;;;;;26.48;11.52;;;4.90;82.20;;;;;;7370542;19;20219;-79
2023/02/08 03:16:14;;;;;;;42.92;12.48;;;4.90;82.70;;;;;;7367166;19;20034;-79
2023/02/08 03:18:54;;;;;;;30.30;12.68;;;4.90;82.60;;;;;;7389773;19;20089;-80
2023/02/08 03:21:35;;;;;;;35.20;11.40;;;4.90;82.80;;;;;;7372152;19;20018;-80
2023/02/08 03:24:13;;;;;;;37.25;11.90;;;4.90;82.80;;;;;;7374721;19;20150;-80
2023/02/08 03:26:51;;;;;;;37.38;12.77;;;4.90;82.40;;;;;;7374976;19;20022;-80
2023/02/08 03:29:28;;;;;;;26.67;11.95;;;4.90;82.00;;;;;;7376733;19;20093;-79
2023/02/08 03:32:01;;;;;;;28.65;12.32;;;4.90;82.10;;;;;;7372082;19;20831;-79
2023/02/08 03:34:38;;;;;;;30.85;12.82;;;4.80;82.30;;;;;;7374035;19;20018;-79
2023/02/08 03:37:15;;;;;;;34.50;12.63;;;4.80;82.80;;;;;;7371332;19;20106;-79
2023/02/08 03:39:46;;;;;;;26.98;13.07;;;4.80;82.80;;;;;;7396651;19;20038;-79
2023/02/08 03:42:19;;;;;;;28.98;12.57;;;4.80;82.90;;;;;;7375567;19;20019;-79
2023/02/08 03:44:52;;;;;;;30.15;11.95;;;4.80;82.90;;;;;;7372887;19;20032;-79
2023/02/08 03:47:24;;;;;;;33.28;13.10;;;4.80;82.70;;;;;;7373548;19;20087;-80
2023/02/08 03:49:55;;;;;;;31.30;13.13;;;4.80;82.50;;;;;;7372456;19;20028;-80
2023/02/08 03:52:28;;;;;;;31.58;12.57;;;4.90;82.20;;;;;;7371028;19;20074;-79
2023/02/08 03:55:00;;;;;;;35.78;13.68;;;4.90;82.20;;;;;;7387131;19;20048;-78
2023/02/08 03:57:33;;;;;;;29.75;12.45;;;4.90;82.10;;;;;;7391109;19;20465;-80
2023/02/08 04:00:04;;;;;;;28.13;11.95;;;4.90;82.20;;;;;;7370912;19;20014;-79
2023/02/08 04:02:36;;;;;;;29.30;12.02;;;4.90;82.00;;;;;;7373203;19;20020;-80
2023/02/08 04:05:07;;;;;;;32.78;13.52;;;4.90;81.90;;;;;;7371857;19;20392;-80
2023/02/08 04:07:38;;;;;;;31.55;13.30;;;4.80;82.00;;;;;;7372127;19;20023;-80
2023/02/08 04:10:08;;;;;;;28.52;12.80;;;4.80;82.20;;;;;;7370257;19;20026;-79
2023/02/08 04:12:37;;;;;;;29.13;12.73;;;4.80;82.00;;;;;;7390831;19;20086;-80
2023/02/08 04:15:06;;;;;;;28.95;13.45;;;4.80;81.80;;;;;;7369985;19;20070;-79
2023/02/08 04:17:35;;;;;;;35.72;12.88;;;4.80;81.80;;;;;;7371269;19;20390;-80
2023/02/08 04:20:04;;;;;;;35.88;13.25;;;4.80;82.00;;;;;;7374408;19;20015;-80
2023/02/08 04:22:33;;;;;;;31.63;13.95;;;4.80;82.00;;;;;;7373602;19;20091;-80
2023/02/08 04:25:04;;;;;;;34.15;14.00;;;4.70;82.20;;;;;;7372811;19;20017;-79
2023/02/08 04:27:33;;;;;;;28.75;13.27;;;4.70;82.50;;;;;;7394735;19;20035;-79
2023/02/08 04:30:02;;;;;;;30.88;12.93;;;4.70;82.20;;;;;;7369261;19;20101;-79
2023/02/08 04:32:30;;;;;;;29.30;13.43;;;4.70;81.90;;;;;;7368561;19;20544;-79
2023/02/08 04:34:59;;;;;;;31.55;14.05;;;4.70;81.60;;;;;;7370949;19;20074;-78
2023/02/08 04:37:28;;;;;;;32.17;13.95;;;4.70;81.70;;;;;;7369655;19;20029;-79
2023/02/08 04:39:57;;;;;;;29.50;13.70;;;4.70;81.90;;;;;;7380470;19;20022;-78
2023/02/08 04:42:29;;;;;;;35.45;14.90;;;4.60;82.30;;;;;;7389015;19;20466;-79
2023/02/08 04:44:58;;;;;;;34.05;13.10;;;4.60;82.90;;;;;;7368711;19;20010;-79
2023/02/08 04:47:26;;;;;;;33.28;13.98;;;4.70;83.10;;;;;;7368158;19;20042;-79
2023/02/08 04:49:55;;;;;;;31.42;13.82;;;4.60;82.70;;;;;;7367753;19;20014;-78
2023/02/08 04:52:24;;;;;;;34.10;13.35;;;4.60;82.70;;;;;;7366799;19;20022;-78
2023/02/08 04:54:53;;;;;;;39.05;15.38;;;4.60;82.50;;;;;;7390601;19;20018;-79
2023/02/08 04:57:21;;;;;;;42.88;15.05;;;4.60;82.30;;;;;;7369464;19;20026;-79
2023/02/08 04:59:53;;;;;;;38.55;14.70;;;4.60;82.50;;;;;;7369739;19;20370;-79
2023/02/08 05:02:22;;;;;;;32.85;13.85;;;4.60;82.30;;;;;;7368769;19;20964;-79
2023/02/08 05:04:51;;;;;;;35.42;13.27;;;4.60;82.30;;;;;;7369240;19;20018;-79
2023/02/08 05:07:20;;;;;;;29.55;13.15;;;4.60;82.30;;;;;;7370303;19;20068;-79
2023/02/08 05:09:48;;;;;;;38.55;13.43;;;4.60;83.10;;;;;;7392472;19;20118;-79
2023/02/08 05:12:17;;;;;;;43.88;13.52;;;4.60;82.20;;;;;;7370833;19;20010;-79
2023/02/08 05:14:46;;;;;;;31.45;13.25;;;4.60;81.90;;;;;;7372905;19;20018;-80
2023/02/08 05:17:17;;;;;;;31.88;14.35;;;4.60;81.70;;;;;;7374966;19;20193;-80
2023/02/08 05:19:46;;;;;;;31.77;13.60;;;4.60;81.90;;;;;;7371351;19;20022;-80
2023/02/08 05:22:15;;;;;;;29.23;13.32;;;4.60;81.70;;;;;;7370074;19;20107;-80
2023/02/08 05:24:44;;;;;;;38.05;13.93;;;4.60;81.60;;;;;;7391127;19;20018;-80
2023/02/08 05:27:13;;;;;;;38.83;15.05;;;4.60;81.70;;;;;;7372641;19;20055;-80
2023/02/08 05:29:41;;;;;;;31.02;14.73;;;4.50;82.20;;;;;;7370368;19;20046;-80
2023/02/08 05:32:11;;;;;;;38.90;13.90;;;4.50;82.60;;;;;;7372346;19;20035;-80
2023/02/08 05:34:43;;;;;;;30.38;13.15;;;4.50;82.40;;;;;;7372631;19;20022;-80
2023/02/08 05:37:12;;;;;;;31.08;13.02;;;4.40;82.30;;;;;;7376103;19;20035;-81
2023/02/08 05:39:41;;;;;;;40.45;12.48;;;4.50;82.30;;;;;;7400242;19;20014;-80
2023/02/08 05:42:10;;;;;;;29.38;13.02;;;4.50;82.30;;;;;;7375985;19;20762;-80
2023/02/08 05:44:39;;;;;;;36.10;13.93;;;4.50;82.30;;;;;;7373419;19;20089;-81
2023/02/08 05:47:08;;;;;;;29.08;13.27;;;4.50;82.50;;;;;;7376159;19;20064;-80
2023/02/08 05:49:36;;;;;;;30.48;13.02;;;4.50;82.50;;;;;;7371101;19;20355;-80
2023/02/08 05:52:08;;;;;;;35.30;13.02;;;4.40;82.50;;;;;;7375065;19;20078;-80
2023/02/08 05:54:37;;;;;;;31.73;13.27;;;4.50;82.70;;;;;;7394072;19;20019;-80
2023/02/08 05:57:06;;;;;;;36.20;13.55;;;4.40;82.70;;;;;;7374850;19;20099;-80
2023/02/08 05:59:34;;;;;;;31.45;14.07;;;4.40;82.90;;;;;;7376462;19;20848;-81
2023/02/08 06:02:03;;;;;;;30.95;14.02;;;4.40;83.00;;;;;;7374192;19;20022;-80
2023/02/08 06:04:32;;;;;;;31.38;13.88;;;4.40;83.00;;;;;;7377289;19;20046;-79
2023/02/08 06:07:01;;;;;;;30.90;13.82;;;4.40;82.90;;;;;;7375122;19;20018;-78
2023/02/08 06:09:32;;;;;;;31.00;14.00;;;4.30;82.70;;;;;;7401753;19;20015;-82
2023/02/08 06:12:00;;;;;;;;;;;4.30;83.20;;;;;;7380303;19;20429;-82
2023/02/08 06:14:29;;;;;;;28.55;12.48;;;4.30;83.20;;;;;;7377354;19;20291;-80
2023/02/08 06:16:58;;;;;;;32.38;13.77;;;4.30;83.00;;;;;;7375564;19;20018;-80
2023/02/08 06:19:27;;;;;;;35.13;14.82;;;4.30;82.90;;;;;;7375594;19;20030;-80
2023/02/08 06:21:56;;;;;;;36.78;14.63;;;4.30;82.90;;;;;;7401741;19;20090;-86
2023/02/08 06:24:25;;;;;;;42.42;14.07;;;4.20;83.10;;;;;;7384065;19;20014;-84
2023/02/08 06:26:56;;;;;;;35.22;14.30;;;4.20;83.00;;;;;;7378529;19;20101;-81
2023/02/08 06:29:25;;;;;;;;;;;4.20;83.20;;;;;;7377615;19;20011;-79
2023/02/08 06:31:54;;;;;;;33.15;13.27;;;4.20;83.60;;;;;;7376848;19;20733;-81
2023/02/08 06:34:23;;;;;;;29.38;13.10;;;4.20;83.50;;;;;;7378530;19;20024;-83
2023/02/08 06:36:51;;;;;;;33.30;14.05;;;4.20;83.50;;;;;;7396912;19;20025;-81
2023/02/08 06:39:20;;;;;;;33.13;14.25;;;4.20;83.30;;;;;;7371665;19;20015;-78
2023/02/08 06:41:49;;;;;;;34.55;14.25;;;4.20;83.20;;;;;;7374085;19;20122;-84
2023/02/08 06:44:23;;;;;;;33.30;14.40;;;4.20;83.10;;;;;;7370885;19;20838;-80
2023/02/08 06:46:54;;;;;;;34.33;14.05;;;4.20;83.30;;;;;;7373532;19;20037;-80
2023/02/08 06:49:23;;;;;;;40.25;13.90;;;4.20;83.40;;;;;;7374482;19;20074;-80
2023/02/08 06:51:52;;;;;;;32.35;13.75;;;4.30;83.30;;;;;;7393230;19;20023;-80
2023/02/08 06:54:21;;;;;;;43.80;14.57;;;4.20;83.30;;;;;;7370058;19;20019;-79
2023/02/08 06:56:50;;;;;;;34.30;14.35;;;4.30;83.20;;;;;;7372385;19;20015;-79
2023/02/08 06:59:21;;;;;;;32.10;14.60;;;4.30;83.20;;;;;;7370908;19;20435;-80
2023/02/08 07:01:50;;;;;;;41.92;15.05;;;4.30;82.80;;;;;;7374251;19;20090;-80
2023/02/08 07:04:18;;;;;;;35.75;13.73;;;4.30;82.40;;;;;;7371092;19;20097;-80
2023/02/08 07:06:50;;;;;;;38.85;14.10;;;4.30;82.40;;;;;;7396201;19;20094;-80
2023/02/08 07:09:19;;;;;;;30.95;13.80;;;4.30;82.50;;;;;;7373604;19;20017;-80
2023/02/08 07:11:48;;;;;;;33.70;13.95;;;4.30;82.60;;;;;;7370743;19;20015;-79
2023/02/08 07:14:17;;;;;;;33.75;13.63;;;4.20;82.50;;;;;;7372956;19;20110;-79
2023/02/08 07:16:48;;;;;;;36.25;14.70;;;4.20;82.50;;;;;;7373272;19;20350;-80
2023/02/08 07:19:17;;;;;;;37.65;16.55;;;4.20;82.60;;;;;;7371654;19;20010;-80
2023/02/08 07:21:46;;;;;;;35.30;15.50;;;4.20;82.50;;;;;;7395421;19;20037;-80
2023/02/08 07:24:14;;;;;;;40.05;16.45;;;4.20;82.60;;;;;;7372756;19;20025;-80
2023/02/08 07:26:43;;;;;;;39.78;15.48;;;4.20;82.60;;;;;;7372753;19;20066;-80
2023/02/08 07:29:12;;;;;;;43.42;17.23;;;4.20;82.60;;;;;;7374189;19;20094;-80
2023/02/08 07:31:40;;;;;;;38.33;16.95;;;4.20;82.60;;;;;;7375314;19;20174;-80
2023/02/08 07:34:12;;;;;;;53.17;17.80;;;4.20;82.70;;;;;;7373223;19;20109;-80
2023/02/08 07:36:40;;;;;;;;;;;4.20;82.90;;;;;;7393499;19;20626;-80
2023/02/08 07:39:09;;;;;;;36.50;15.90;;;4.20;83.30;;;;;;7370933;19;19927;-80
2023/02/08 07:41:37;;;;;;;41.15;16.83;;;4.20;82.90;;;;;;7372002;19;20461;-80
2023/02/08 07:44:06;;;;;;;42.50;17.08;;;4.30;82.90;;;;;;7375003;19;20025;-80
2023/02/08 07:46:35;;;;;;;43.55;18.60;;;4.30;82.80;;;;;;7374075;19;20154;-80
2023/02/08 07:49:04;;;;;;;41.40;16.60;;;4.30;82.60;;;;;;7372875;19;20437;-80
2023/02/08 07:51:35;;;;;;;45.38;17.45;;;4.30;82.60;;;;;;7391842;19;20094;-80
2023/02/08 07:54:03;;;;;;;;;;;4.30;82.80;;;;;;7372613;19;20051;-80
2023/02/08 07:56:32;;;;;;;47.40;16.60;;;4.30;82.90;;;;;;7373306;19;19963;-81
2023/02/08 07:59:01;;;;;;;46.28;17.63;;;4.30;82.90;;;;;;7379273;19;20025;-81
2023/02/08 08:01:30;;;;;;;48.00;17.52;;;4.40;83.20;;;;;;7379286;19;20090;-80
2023/02/08 08:03:58;;;;;;;46.65;17.38;;;4.40;83.20;;;;;;7376263;19;20022;-79
2023/02/08 08:06:27;;;;;;;44.03;18.10;;;4.40;83.10;;;;;;7395828;19;20022;-80
2023/02/08 08:08:58;;;;;;;52.60;18.10;;;4.40;83.00;;;;;;7372790;19;20083;-80
2023/02/08 08:11:27;;;;;;;;;;;4.50;83.00;;;;;;7375389;19;20156;-80
2023/02/08 08:13:56;;;;;;;36.72;16.92;;;4.50;83.00;;;;;;7376976;19;20275;-80
2023/02/08 08:16:24;;;;;;;50.80;18.85;;;4.50;83.20;;;;;;7374806;19;20066;-81
2023/02/08 08:18:53;;;;;;;44.88;17.80;;;4.50;83.80;;;;;;7392420;19;20110;-81
2023/02/08 08:21:22;;;;;;;42.45;18.95;;;4.60;84.10;;;;;;7373175;19;20018;-80
2023/02/08 08:23:50;;;;;;;50.58;18.52;;;4.70;84.10;;;;;;7369442;19;20021;-79
2023/02/08 08:26:23;;;;;;;47.08;19.67;;;4.80;84.30;;;;;;7369785;19;20098;-79
2023/02/08 08:28:52;;;;;;;46.60;19.35;;;4.80;84.30;;;;;;7367880;19;20047;-80
2023/02/08 08:31:22;;;;;;;48.22;19.42;;;4.90;84.30;;;;;;7365336;19;20007;-80
2023/02/08 08:33:51;;;;;;;46.42;18.60;;;5.00;85.40;;;;;;7388869;19;20085;-79
2023/02/08 08:36:20;;;;;;;53.92;20.35;;;5.00;84.70;;;;;;7367665;19;20086;-79
2023/02/08 08:38:48;;;;;;;51.05;17.60;;;5.10;84.60;;;;;;7368033;19;20017;-79
2023/02/08 08:41:21;;;;;;;46.75;18.40;;;5.10;84.60;;;;;;7368932;19;20006;-81
2023/02/08 08:43:52;;;;;;;50.55;17.80;;;5.20;83.80;;;;;;7369222;19;20026;-80
2023/02/08 08:46:21;;;;;;;38.60;18.45;;;5.30;84.00;;;;;;7368388;19;20010;-80
2023/02/08 08:48:50;;;;;;;37.35;16.27;;;5.40;83.30;;;;;;7388390;19;20390;-80
2023/02/08 08:51:22;;;;;;;35.20;15.32;;;5.40;83.00;;;;;;7369692;19;20018;-80
2023/02/08 08:53:50;;;;;;;41.35;16.17;;;5.50;81.90;;;;;;7372885;19;20050;-81
2023/02/08 08:56:19;;;;;;;36.90;15.20;;;5.60;81.60;;;;;;7372880;19;20090;-82
2023/02/08 08:58:48;;;;;;;36.25;15.18;;;5.70;81.30;;;;;;7369081;19;20067;-80
2023/02/08 09:01:19;;;;;;;36.42;14.30;;;5.70;81.00;;;;;;7371276;19;20107;-82
2023/02/08 09:03:47;;;;;;;;;;;5.80;80.10;;;;;;7395926;19;20489;-81
2023/02/08 09:06:16;;;;;;;30.23;12.57;;;5.90;79.70;;;;;;7374845;19;19926;-81
2023/02/08 09:08:45;;;;;;;35.20;13.50;;;5.90;78.90;;;;;;7370368;19;20090;-80
2023/02/08 09:11:16;;;;;;;32.05;13.80;;;5.90;77.20;;;;;;7368604;19;20861;-80
2023/02/08 09:13:45;;;;;;;30.90;14.23;;;6.00;77.40;;;;;;7367866;19;20018;-80
2023/02/08 09:16:16;;;;;;;31.20;13.73;;;6.00;77.10;;;;;;7367080;19;20025;-80
2023/02/08 09:18:47;;;;;;;33.55;14.32;;;6.00;76.90;;;;;;7389962;19;20086;-81
2023/02/08 09:21:18;;;;;;;32.53;14.07;;;6.10;76.50;;;;;;7368071;19;20014;-80
2023/02/08 09:23:48;;;;;;;33.07;13.13;;;6.10;75.70;;;;;;7369470;19;20027;-81
2023/02/08 09:26:19;;;;;;;30.13;13.60;;;6.10;75.50;;;;;;7369077;19;20023;-82
2023/02/08 09:28:48;;;;;;;40.55;14.68;;;6.10;74.20;;;;;;7368983;19;20106;-80
2023/02/08 09:31:22;;;;;;;34.33;13.80;;;6.10;74.50;;;;;;7366730;19;20010;-81
2023/02/08 09:33:55;;;;;;;29.58;13.55;;;6.20;74.60;;;;;;7391477;19;20019;-81
2023/02/08 09:36:25;;;;;;;33.80;14.10;;;6.20;74.40;;;;;;7367973;19;20082;-82
2023/02/08 09:38:59;;;;;;;34.13;14.07;;;6.30;74.20;;;;;;7369233;19;20018;-81
2023/02/08 09:41:42;;;;;;;34.20;15.23;;;6.30;73.70;;;;;;7374431;19;20026;-81
2023/02/08 09:44:21;;;;;;;36.35;13.57;;;6.30;73.70;;;;;;7374700;19;20033;-81
2023/02/08 09:46:57;;;;;;;31.55;13.70;;;6.40;73.60;;;;;;7376820;19;20089;-81
2023/02/08 09:49:33;;;;;;;31.63;13.65;;;6.40;73.50;;;;;;7375330;19;20090;-81
2023/02/08 09:52:05;;;;;;;34.35;13.88;;;6.40;73.90;;;;;;7375461;19;20022;-80
2023/02/08 09:54:38;;;;;;;28.88;13.43;;;6.40;72.90;;;;;;7393141;19;20117;-80
2023/02/08 09:57:13;;;;;;;31.65;13.95;;;6.50;72.90;;;;;;7371099;19;20393;-80
2023/02/08 09:59:48;;;;;;;34.45;14.57;;;6.50;72.80;;;;;;7370088;19;20074;-81
2023/02/08 10:02:24;;;;;;;37.53;14.27;;;6.50;72.40;;;;;;7371103;19;20019;-81
2023/02/08 10:05:05;;;;;;;38.75;14.02;;;6.50;72.30;;;;;;7369456;19;20089;-82
2023/02/08 10:07:36;;;;;;;31.40;14.40;;;6.50;72.20;;;;;;7367711;19;20078;-79
2023/02/08 10:10:08;;;;;;;36.22;14.40;;;6.60;72.30;;;;;;7367736;19;20039;-80
2023/02/08 10:12:46;;;;;;;35.75;14.65;;;6.60;72.20;;;;;;7389992;19;20061;-80
2023/02/08 10:15:23;;;;;;;38.33;14.85;;;6.60;72.40;;;;;;7372007;19;20308;-81
2023/02/08 10:18:17;;;;;;;34.67;13.77;;;6.60;72.40;;;;;;7369382;19;20081;-81
2023/02/08 10:21:05;;;;;;;34.22;14.55;;;6.70;72.30;;;;;;7372431;19;20579;-82
2023/02/08 10:23:50;;;;;;;33.25;14.30;;;6.70;71.90;;;;;;7376580;19;20100;-80
2023/02/08 10:26:27;;;;;;;37.50;14.15;;;6.70;72.00;;;;;;7374276;19;20023;-81
2023/02/08 10:29:40;;;;;;;36.50;14.73;;;6.80;71.20;;;;;;7373575;19;20015;-81
2023/02/08 10:32:34;;;;;;;29.10;14.60;;;6.80;71.60;;;;;;7378657;19;20066;-79
2023/02/08 10:35:06;;;;;;;27.20;13.45;;;6.80;71.70;;;;;;7378681;19;20588;-80
2023/02/08 10:37:41;;;;;;;33.47;14.70;;;6.80;71.60;;;;;;7378776;19;20085;-80
2023/02/08 10:40:31;;;;;;;36.30;14.60;;;6.90;71.30;;;;;;7374061;19;20090;-80
2023/02/08 10:43:11;;;;;;;41.53;14.95;;;6.90;71.40;;;;;;7377395;19;20384;-80
2023/02/08 10:45:47;;;;;;;34.47;13.48;;;6.90;71.30;;;;;;7397888;19;20370;-81
2023/02/08 10:48:21;;;;;;;35.13;14.65;;;6.90;71.10;;;;;;7378229;19;20881;-80
2023/02/08 10:50:50;;;;;;;35.10;14.63;;;6.90;71.20;;;;;;7376576;19;20010;-81
2023/02/08 10:53:21;;;;;;;53.50;15.85;;;6.90;70.70;;;;;;7376845;19;20022;-82
2023/02/08 10:55:50;;;;;;;38.15;15.65;;;7.00;70.80;;;;;;7377443;19;20022;-81
2023/02/08 10:58:21;;;;;;;44.03;16.48;;;7.00;71.20;;;;;;7374435;19;20861;-80
2023/02/08 11:00:51;;;;;;;38.20;16.15;;;7.00;70.80;;;;;;7398717;19;20052;-80
2023/02/08 11:03:24;;;;;;;35.35;15.98;;;7.10;70.70;;;;;;7373321;19;20386;-80
2023/02/08 11:05:53;;;;;;;32.20;14.75;;;7.10;70.80;;;;;;7374399;19;20078;-80
2023/02/08 11:08:27;;;;;;;41.72;15.15;;;7.10;70.20;;;;;;7374502;19;20112;-81
2023/02/08 11:11:01;;;;;;;53.78;15.00;;;7.10;69.70;;;;;;7373103;19;20011;-81
2023/02/08 11:13:36;;;;;;;34.72;14.63;;;7.10;69.40;;;;;;7374765;19;20034;-81
2023/02/08 11:16:08;;;;;;;41.30;14.82;;;7.10;69.10;;;;;;7374923;19;20014;-81
2023/02/08 11:18:40;;;;;;;26.80;13.57;;;7.10;68.90;;;;;;7393786;19;20030;-81
2023/02/08 11:21:22;;;;;;;34.17;13.40;;;7.20;68.60;;;;;;7373195;19;20022;-81
2023/02/08 11:23:54;;;;;;;;;;;7.20;68.90;;;;;;7378383;19;20014;-80
2023/02/08 11:26:32;;;;;;;37.10;14.63;;;7.30;68.80;;;;;;7375763;19;19927;-80
2023/02/08 11:29:04;;;;;;;35.10;14.45;;;7.30;68.70;;;;;;7372726;19;20474;-81
2023/02/08 11:31:34;;;;;;;34.92;15.55;;;7.30;68.70;;;;;;7373306;19;20011;-81
2023/02/08 11:34:05;;;;;;;32.60;14.43;;;7.30;69.00;;;;;;7380399;19;20021;-80
2023/02/08 11:36:36;;;;;;;30.60;14.05;;;7.30;68.50;;;;;;7398591;19;20341;-80
2023/02/08 11:39:18;;;;;;;41.72;15.45;;;7.30;67.50;;;;;;7377236;19;20015;-81
2023/02/08 11:41:48;;;;;;;35.00;13.93;;;7.30;67.10;;;;;;7371479;19;20026;-81
2023/02/08 11:44:24;;;;;;;33.83;14.57;;;7.30;67.20;;;;;;7372404;19;20216;-81
2023/02/08 11:46:55;;;;;;;31.63;13.25;;;7.30;66.30;;;;;;7371864;19;20018;-80
2023/02/08 11:49:30;;;;;;;31.10;13.88;;;7.30;66.70;;;;;;7372020;19;20158;-82
2023/02/08 11:51:58;;;;;;;32.05;14.48;;;7.30;66.50;;;;;;7370559;19;20449;-80
2023/02/08 11:54:42;;;;;;;41.38;13.95;;;7.40;66.30;;;;;;7393539;19;20069;-81
2023/02/08 11:57:18;;;;;;;32.58;13.93;;;7.40;66.30;;;;;;7369872;19;20093;-82
2023/02/08 11:59:46;;;;;;;50.67;13.55;;;7.40;66.30;;;;;;7368914;19;20019;-82
2023/02/08 12:02:39;;;;;;;29.73;13.93;;;7.50;66.00;;;;;;7372885;19;20125;-82
2023/02/08 12:05:14;;;;;;;35.08;13.52;;;7.50;65.10;;;;;;7371001;19;20018;-81
2023/02/08 12:07:52;;;;;;;26.55;12.25;;;7.60;65.40;;;;;;7373379;19;20398;-80
2023/02/08 12:10:45;;;;;;;30.92;13.85;;;7.60;64.90;;;;;;7372052;19;20074;-81
2023/02/08 12:13:29;;;;;;;28.85;12.70;;;7.60;64.60;;;;;;7376078;19;20047;-81
2023/02/08 12:16:08;;;;;;;33.90;13.23;;;7.80;64.40;;;;;;7378317;19;20089;-80
2023/02/08 12:18:55;;;;;;;26.15;13.30;;;7.80;65.00;;;;;;7394201;19;20109;-81
2023/02/08 12:21:28;;;;;;;30.02;13.02;;;7.80;64.10;;;;;;7370541;19;20029;-80
2023/02/08 12:24:00;;;;;;;33.53;14.25;;;7.90;64.10;;;;;;7376338;19;20018;-81
2023/02/08 12:26:48;;;;;;;33.05;14.05;;;8.00;64.10;;;;;;7376970;19;20098;-81
2023/02/08 12:29:33;;;;;;;32.30;13.38;;;8.00;64.40;;;;;;7374609;19;20067;-80
2023/02/08 12:32:24;;;;;;;26.38;11.57;;;8.10;63.70;;;;;;7370583;19;20019;-80
2023/02/08 12:35:07;;;;;;;27.67;11.88;;;8.10;64.00;;;;;;7370306;19;20021;-81
2023/02/08 12:40:52;;;;;;;27.35;11.93;;;8.30;64.10;;;;;;7369950;19;20133;-80
2023/02/08 12:43:42;;;;;;;32.00;11.93;;;8.30;62.50;;;;;;7368833;19;20007;-80
2023/02/08 12:46:27;;;;;;;25.90;10.95;;;8.40;61.40;;;;;;7370299;19;20035;-80
2023/02/08 12:49:09;;;;;;;25.60;9.90;;;8.50;61.30;;;;;;7392385;19;20029;-80
2023/02/08 12:51:46;;;;;;;25.60;10.27;;;8.50;60.30;;;;;;7369276;19;20025;-80
2023/02/08 12:54:17;;;;;;;28.02;13.00;;;8.60;59.70;;;;;;7368423;19;20646;-80
2023/02/08 12:56:49;;;;;;;25.95;11.68;;;8.70;60.10;;;;;;7369147;19;20018;-81
2023/02/08 12:59:27;;;;;;;26.30;12.30;;;8.80;60.70;;;;;;7369369;19;20023;-81
2023/02/08 13:02:03;;;;;;;26.13;11.40;;;8.90;60.20;;;;;;7369257;19;20029;-81
2023/02/08 13:04:38;;;;;;;22.02;10.90;;;8.90;59.50;;;;;;7374801;19;20080;-80
2023/02/08 13:07:18;;;;;;;29.25;11.95;;;9.00;59.50;;;;;;7371215;19;20054;-82
2023/02/08 13:09:57;;;;;;;23.92;11.52;;;9.00;59.50;;;;;;7391875;19;20040;-80
2023/02/08 13:12:31;;;;;;;22.17;11.60;;;9.20;60.50;;;;;;7368531;19;20045;-80
2023/02/08 13:15:08;;;;;;;25.77;10.88;;;9.20;59.70;;;;;;7371951;19;20523;-80